createdAt,value
2018-01-15T00:00:02.794Z,1001.84
2018-01-15T00:01:02.819Z,1001.88
2018-01-15T00:02:02.843Z,1001.86
2018-01-15T00:03:02.866Z,1001.86
2018-01-15T00:04:02.890Z,1001.90
2018-01-15T00:05:02.912Z,1001.87
2018-01-15T00:06:02.936Z,1001.89
2018-01-15T00:07:02.960Z,1001.90
2018-01-15T00:08:02.983Z,1001.84
2018-01-15T00:09:03.005Z,1001.85
2018-01-15T00:10:03.030Z,1001.76
2018-01-15T00:11:03.054Z,1001.84
2018-01-15T00:12:03.080Z,1001.81
2018-01-15T00:13:03.101Z,1001.82
2018-01-15T00:14:03.125Z,1001.82
2018-01-15T00:15:03.146Z,1001.84
2018-01-15T00:16:03.172Z,1001.90
2018-01-15T00:17:03.194Z,1001.88
2018-01-15T00:18:03.218Z,1001.90
2018-01-15T00:19:03.241Z,1001.92
2018-01-15T00:20:03.266Z,1001.88
2018-01-15T00:21:03.287Z,1001.90
2018-01-15T00:22:03.312Z,1001.87
2018-01-15T00:23:03.336Z,1001.90
2018-01-15T00:24:03.359Z,1001.87
2018-01-15T00:25:03.382Z,1001.88
2018-01-15T00:26:03.408Z,1001.83
2018-01-15T00:27:03.430Z,1001.82
2018-01-15T00:28:03.454Z,1001.77
2018-01-15T00:29:03.478Z,1001.83
2018-01-15T00:30:03.501Z,1001.78
2018-01-15T00:31:03.678Z,1001.79
2018-01-15T00:32:03.548Z,1001.79
2018-01-15T00:33:03.573Z,1001.76
2018-01-15T00:34:03.593Z,1001.80
2018-01-15T00:35:03.617Z,1001.78
2018-01-15T00:36:03.644Z,1001.75
2018-01-15T00:37:03.666Z,1001.73
2018-01-15T00:38:03.688Z,1001.75
2018-01-15T00:39:03.716Z,1001.74
2018-01-15T00:40:03.736Z,1001.73
2018-01-15T00:41:03.760Z,1001.75
2018-01-15T00:42:03.783Z,1001.78
2018-01-15T00:43:03.805Z,1001.76
2018-01-15T00:44:03.831Z,1001.78
2018-01-15T00:45:03.852Z,1001.68
2018-01-15T00:46:03.877Z,1001.79
2018-01-15T00:47:03.901Z,1001.74
2018-01-15T00:48:03.924Z,1001.76
2018-01-15T00:49:03.949Z,1001.77
2018-01-15T00:50:03.971Z,1001.74
2018-01-15T00:51:03.995Z,1001.72
2018-01-15T00:52:04.019Z,1001.72
2018-01-15T00:53:04.040Z,1001.77
2018-01-15T00:54:04.064Z,1001.77
2018-01-15T00:55:04.088Z,1001.75
2018-01-15T00:56:04.113Z,1001.71
2018-01-15T00:57:04.134Z,1001.69
2018-01-15T00:58:04.158Z,1001.73
2018-01-15T00:59:04.183Z,1001.70
2018-01-15T01:00:04.208Z,1001.68
2018-01-15T01:01:04.230Z,1001.64
2018-01-15T01:02:04.252Z,1001.69
2018-01-15T01:03:04.277Z,1001.66
2018-01-15T01:04:04.301Z,1001.60
2018-01-15T01:05:04.324Z,1001.62
2018-01-15T01:06:04.346Z,1001.62
2018-01-15T01:07:04.371Z,1001.63
2018-01-15T01:08:04.394Z,1001.61
2018-01-15T01:09:04.418Z,1001.60
2018-01-15T01:10:04.442Z,1001.62
2018-01-15T01:11:04.466Z,1001.59
2018-01-15T01:12:04.495Z,1001.57
2018-01-15T01:13:04.513Z,1001.52
2018-01-15T01:14:04.536Z,1001.49
2018-01-15T01:15:04.561Z,1001.41
2018-01-15T01:16:04.585Z,1001.47
2018-01-15T01:17:04.607Z,1001.47
2018-01-15T01:18:04.631Z,1001.49
2018-01-15T01:19:04.655Z,1001.49
2018-01-15T01:20:04.679Z,1001.51
2018-01-15T01:21:04.701Z,1001.51
2018-01-15T01:22:04.726Z,1001.54
2018-01-15T01:23:04.749Z,1001.51
2018-01-15T01:24:04.773Z,1001.54
2018-01-15T01:25:04.796Z,1001.56
2018-01-15T01:26:04.819Z,1001.56
2018-01-15T01:27:04.843Z,1001.57
2018-01-15T01:28:04.868Z,1001.60
2018-01-15T01:29:04.889Z,1001.60
2018-01-15T01:30:04.914Z,1001.57
2018-01-15T01:31:04.937Z,1001.47
2018-01-15T01:32:04.961Z,1001.50
2018-01-15T01:33:04.985Z,1001.51
2018-01-15T01:34:05.009Z,1001.51
2018-01-15T01:35:05.040Z,1001.49
2018-01-15T01:36:05.056Z,1001.53
2018-01-15T01:37:05.078Z,1001.55
2018-01-15T01:38:05.130Z,1001.49
2018-01-15T01:39:05.127Z,1001.50
2018-01-15T01:40:05.153Z,1001.53
2018-01-15T01:41:05.174Z,1001.53
2018-01-15T01:42:05.197Z,1001.50
2018-01-15T01:43:05.222Z,1001.46
2018-01-15T01:44:05.246Z,1001.43
2018-01-15T01:45:05.269Z,1001.41
2018-01-15T01:46:05.292Z,1001.36
2018-01-15T01:47:05.316Z,1001.34
2018-01-15T01:48:05.340Z,1001.32
2018-01-15T01:49:05.364Z,1001.33
2018-01-15T01:50:05.387Z,1001.37
2018-01-15T01:51:05.450Z,1001.30
2018-01-15T01:52:05.436Z,1001.34
2018-01-15T01:53:05.458Z,1001.36
2018-01-15T01:54:05.485Z,1001.39
2018-01-15T01:55:05.508Z,1001.34
2018-01-15T01:56:05.532Z,1001.29
2018-01-15T01:57:05.554Z,1001.28
2018-01-15T01:58:05.578Z,1001.27
2018-01-15T01:59:05.603Z,1001.27
2018-01-15T02:00:05.628Z,1001.22
2018-01-15T02:01:05.649Z,1001.26
2018-01-15T02:02:05.673Z,1001.28
2018-01-15T02:03:05.697Z,1001.24
2018-01-15T02:04:05.721Z,1001.24
2018-01-15T02:05:05.746Z,1001.21
2018-01-15T02:06:05.770Z,1001.19
2018-01-15T02:07:05.793Z,1001.20
2018-01-15T02:08:05.871Z,1001.20
2018-01-15T02:09:05.840Z,1001.16
2018-01-15T02:10:05.865Z,1001.23
2018-01-15T02:11:05.890Z,1001.21
2018-01-15T02:12:05.913Z,1001.21
2018-01-15T02:13:05.937Z,1001.19
2018-01-15T02:14:05.961Z,1001.18
2018-01-15T02:15:05.985Z,1001.21
2018-01-15T02:16:06.009Z,1001.16
2018-01-15T02:17:06.033Z,1001.18
2018-01-15T02:18:06.057Z,1001.14
2018-01-15T02:19:06.081Z,1001.10
2018-01-15T02:20:06.106Z,1001.12
2018-01-15T02:21:06.129Z,1001.10
2018-01-15T02:22:06.153Z,1001.09
2018-01-15T02:23:06.177Z,1001.12
2018-01-15T02:24:06.208Z,1001.05
2018-01-15T02:25:06.225Z,1001.05
2018-01-15T02:26:06.250Z,1001.08
2018-01-15T02:27:06.274Z,1001.06
2018-01-15T02:28:06.448Z,1001.09
2018-01-15T02:29:06.321Z,1001.06
2018-01-15T02:30:06.346Z,1001.03
2018-01-15T02:31:06.371Z,1001.04
2018-01-15T02:32:06.395Z,1000.99
2018-01-15T02:33:06.418Z,1000.96
2018-01-15T02:34:06.443Z,1000.97
2018-01-15T02:35:06.467Z,1000.94
2018-01-15T02:36:06.491Z,1000.93
2018-01-15T02:37:06.522Z,1000.94
2018-01-15T02:38:06.550Z,1000.92
2018-01-15T02:39:06.565Z,1000.97
2018-01-15T02:40:06.587Z,1000.95
2018-01-15T02:41:06.609Z,1001.00
2018-01-15T02:42:06.635Z,1000.99
2018-01-15T02:43:06.659Z,1000.96
2018-01-15T02:44:06.684Z,1001.01
2018-01-15T02:45:06.708Z,1000.97
2018-01-15T02:46:06.732Z,1001.03
2018-01-15T02:47:06.757Z,1000.99
2018-01-15T02:48:06.781Z,1000.99
2018-01-15T02:49:06.810Z,1000.95
2018-01-15T02:50:06.828Z,1000.90
2018-01-15T02:51:06.854Z,1000.96
2018-01-15T02:52:06.878Z,1000.99
2018-01-15T02:53:06.901Z,1000.96
2018-01-15T02:54:06.925Z,1000.97
2018-01-15T02:55:06.949Z,1000.92
2018-01-15T02:56:06.976Z,1000.93
2018-01-15T02:57:06.998Z,1000.94
2018-01-15T02:58:07.021Z,1000.94
2018-01-15T02:59:07.046Z,1000.94
2018-01-15T03:00:07.071Z,1000.91
2018-01-15T03:01:07.097Z,1000.89
2018-01-15T03:02:07.119Z,1000.83
2018-01-15T03:03:07.143Z,1000.85
2018-01-15T03:04:07.172Z,1000.82
2018-01-15T03:05:07.192Z,1000.86
2018-01-15T03:06:07.216Z,1000.87
2018-01-15T03:07:07.240Z,1000.84
2018-01-15T03:08:07.265Z,1000.81
2018-01-15T03:09:07.288Z,1000.84
2018-01-15T03:10:07.312Z,1000.84
2018-01-15T03:11:07.338Z,1000.81
2018-01-15T03:12:07.361Z,1000.80
2018-01-15T03:13:07.385Z,1000.82
2018-01-15T03:14:07.409Z,1000.82
2018-01-15T03:15:07.433Z,1000.85
2018-01-15T03:16:07.458Z,1000.83
2018-01-15T03:17:07.487Z,1000.82
2018-01-15T03:18:07.506Z,1000.86
2018-01-15T03:19:07.530Z,1000.83
2018-01-15T03:20:07.553Z,1000.81
2018-01-15T03:21:07.578Z,1000.83
2018-01-15T03:22:07.603Z,1000.75
2018-01-15T03:23:07.626Z,1000.77
2018-01-15T03:24:07.651Z,1000.73
2018-01-15T03:25:07.676Z,1000.69
2018-01-15T03:26:07.699Z,1000.70
2018-01-15T03:27:07.724Z,1000.74
2018-01-15T03:28:07.747Z,1000.72
2018-01-15T03:29:07.771Z,1000.75
2018-01-15T03:30:07.796Z,1000.76
2018-01-15T03:31:07.821Z,1000.68
2018-01-15T03:32:07.846Z,1000.68
2018-01-15T03:33:07.870Z,1000.69
2018-01-15T03:34:07.891Z,1000.63
2018-01-15T03:35:07.917Z,1000.62
2018-01-15T03:36:07.940Z,1000.59
2018-01-15T03:37:07.964Z,1000.60
2018-01-15T03:38:07.987Z,1000.61
2018-01-15T03:39:08.012Z,1000.55
2018-01-15T03:40:08.038Z,1000.56
2018-01-15T03:41:08.060Z,1000.52
2018-01-15T03:42:08.084Z,1000.54
2018-01-15T03:43:08.109Z,1000.58
2018-01-15T03:44:08.133Z,1000.49
2018-01-15T03:45:08.156Z,1000.48
2018-01-15T03:46:08.180Z,1000.47
2018-01-15T03:47:08.205Z,1000.48
2018-01-15T03:48:08.229Z,1000.41
2018-01-15T03:49:08.252Z,1000.44
2018-01-15T03:50:08.277Z,1000.39
2018-01-15T03:51:08.299Z,1000.36
2018-01-15T03:52:08.325Z,1000.43
2018-01-15T03:53:08.347Z,1000.36
2018-01-15T03:54:08.376Z,1000.39
2018-01-15T03:55:08.394Z,1000.35
2018-01-15T03:56:08.420Z,1000.38
2018-01-15T03:57:08.443Z,1000.29
2018-01-15T03:58:08.466Z,1000.33
2018-01-15T03:59:08.491Z,1000.38
2018-01-15T04:00:08.516Z,1000.37
2018-01-15T04:01:08.539Z,1000.33
2018-01-15T04:02:08.563Z,1000.37
2018-01-15T04:03:08.587Z,1000.40
2018-01-15T04:04:08.611Z,1000.43
2018-01-15T04:05:08.634Z,1000.38
2018-01-15T04:06:08.656Z,1000.44
2018-01-15T04:07:08.680Z,1000.45
2018-01-15T04:08:08.706Z,1000.41
2018-01-15T04:09:08.728Z,1000.45
2018-01-15T04:10:08.751Z,1000.38
2018-01-15T04:11:08.776Z,1000.35
2018-01-15T04:12:08.805Z,1000.37
2018-01-15T04:13:08.823Z,1000.39
2018-01-15T04:14:08.847Z,1000.41
2018-01-15T04:15:08.872Z,1000.39
2018-01-15T04:16:08.895Z,1000.36
2018-01-15T04:17:08.917Z,1000.41
2018-01-15T04:18:08.941Z,1000.38
2018-01-15T04:19:08.966Z,1000.33
2018-01-15T04:20:08.990Z,1000.35
2018-01-15T04:21:09.013Z,1000.35
2018-01-15T04:22:09.038Z,1000.32
2018-01-15T04:23:09.061Z,1000.30
2018-01-15T04:24:09.085Z,1000.27
2018-01-15T04:25:09.258Z,1000.30
2018-01-15T04:26:09.133Z,1000.28
2018-01-15T04:27:09.155Z,1000.29
2018-01-15T04:28:09.180Z,1000.22
2018-01-15T04:29:09.202Z,1000.28
2018-01-15T04:30:09.228Z,1000.25
2018-01-15T04:31:09.250Z,1000.20
2018-01-15T04:32:09.276Z,1000.22
2018-01-15T04:33:09.298Z,1000.22
2018-01-15T04:34:09.322Z,1000.23
2018-01-15T04:35:09.349Z,1000.20
2018-01-15T04:36:09.370Z,1000.16
2018-01-15T04:37:09.393Z,1000.06
2018-01-15T04:38:09.417Z,1000.09
2018-01-15T04:39:09.440Z,1000.07
2018-01-15T04:40:09.465Z,1000.10
2018-01-15T04:41:09.487Z,1000.05
2018-01-15T04:42:09.516Z,1000.07
2018-01-15T04:43:09.580Z,1000.04
2018-01-15T04:44:09.558Z,1000.06
2018-01-15T04:45:09.581Z,1000.05
2018-01-15T04:46:09.604Z,1000.05
2018-01-15T04:47:09.628Z,1000.05
2018-01-15T04:48:09.653Z,1000.08
2018-01-15T04:49:09.676Z,1000.12
2018-01-15T04:50:09.699Z,1000.07
2018-01-15T04:51:09.722Z,1000.19
2018-01-15T04:52:09.746Z,1000.15
2018-01-15T04:53:09.770Z,1000.13
2018-01-15T04:54:09.794Z,1000.18
2018-01-15T04:55:09.816Z,1000.14
2018-01-15T04:56:09.841Z,1000.11
2018-01-15T04:57:09.863Z,1000.15
2018-01-15T04:58:09.886Z,1000.12
2018-01-15T04:59:09.909Z,1000.07
2018-01-15T05:00:09.932Z,1000.13
2018-01-15T05:01:09.956Z,1000.11
2018-01-15T05:02:09.980Z,1000.18
2018-01-15T05:03:10.003Z,1000.22
2018-01-15T05:04:10.085Z,1000.23
2018-01-15T05:05:10.053Z,1000.13
2018-01-15T05:06:10.073Z,1000.15
2018-01-15T05:07:10.097Z,1000.15
2018-01-15T05:08:10.122Z,1000.13
2018-01-15T05:09:10.141Z,1000.08
2018-01-15T05:10:10.188Z,1000.12
2018-01-15T05:11:10.189Z,1000.07
2018-01-15T05:12:10.213Z,1000.09
2018-01-15T05:13:10.236Z,1000.08
2018-01-15T05:14:10.259Z,1000.13
2018-01-15T05:15:10.283Z,1000.11
2018-01-15T05:16:10.306Z,1000.11
2018-01-15T05:17:10.330Z,1000.12
2018-01-15T05:18:10.352Z,1000.16
2018-01-15T05:19:10.376Z,1000.04
2018-01-15T05:20:10.400Z,1000.09
2018-01-15T05:21:10.497Z,1000.08
2018-01-15T05:22:10.446Z,1000.10
2018-01-15T05:23:10.469Z,999.98
2018-01-15T05:24:10.492Z,1000.01
2018-01-15T05:25:10.514Z,999.99
2018-01-15T05:26:10.539Z,999.93
2018-01-15T05:27:10.562Z,999.94
2018-01-15T05:28:10.585Z,999.99
2018-01-15T05:29:10.608Z,999.89
2018-01-15T05:30:10.631Z,999.91
2018-01-15T05:31:10.805Z,999.90
2018-01-15T05:32:10.679Z,999.90
2018-01-15T05:33:10.701Z,999.88
2018-01-15T05:34:10.725Z,999.89
2018-01-15T05:35:10.748Z,999.94
2018-01-15T05:36:10.771Z,999.91
2018-01-15T05:37:10.794Z,999.97
2018-01-15T05:38:10.817Z,999.97
2018-01-15T05:39:10.840Z,999.97
2018-01-15T05:40:10.864Z,1000.00
2018-01-15T05:41:10.888Z,1000.00
2018-01-15T05:42:10.910Z,999.99
2018-01-15T05:43:10.934Z,1000.05
2018-01-15T05:44:10.957Z,1000.05
2018-01-15T05:45:10.983Z,1000.03
2018-01-15T05:46:11.003Z,1000.00
2018-01-15T05:47:11.025Z,1000.00
2018-01-15T05:48:11.050Z,999.95
2018-01-15T05:49:11.072Z,999.98
2018-01-15T05:50:11.097Z,999.96
2018-01-15T05:51:11.120Z,999.96
2018-01-15T05:52:11.144Z,999.98
2018-01-15T05:53:11.165Z,999.98
2018-01-15T05:54:11.189Z,1000.01
2018-01-15T05:55:11.212Z,999.97
2018-01-15T05:56:11.236Z,999.96
2018-01-15T05:57:11.258Z,1000.01
2018-01-15T05:58:11.280Z,999.97
2018-01-15T05:59:11.305Z,999.97
2018-01-15T06:00:11.329Z,1000.01
2018-01-15T06:01:11.353Z,999.97
2018-01-15T06:02:11.375Z,999.97
2018-01-15T06:03:11.397Z,999.97
2018-01-15T06:04:11.422Z,999.91
2018-01-15T06:05:11.444Z,999.93
2018-01-15T06:06:11.468Z,999.98
2018-01-15T06:07:11.498Z,1000.05
2018-01-15T06:08:11.515Z,999.92
2018-01-15T06:09:11.538Z,999.96
2018-01-15T06:10:11.561Z,999.97
2018-01-15T06:11:11.585Z,999.94
2018-01-15T06:12:11.607Z,999.97
2018-01-15T06:13:11.631Z,1000.00
2018-01-15T06:14:11.654Z,1000.02
2018-01-15T06:15:11.676Z,999.97
2018-01-15T06:16:11.700Z,999.98
2018-01-15T06:17:11.723Z,999.97
2018-01-15T06:18:11.747Z,999.95
2018-01-15T06:19:11.774Z,999.91
2018-01-15T06:20:11.798Z,999.88
2018-01-15T06:21:11.817Z,999.87
2018-01-15T06:22:11.840Z,999.82
2018-01-15T06:23:11.865Z,999.81
2018-01-15T06:24:11.889Z,999.81
2018-01-15T06:25:11.909Z,999.78
2018-01-15T06:26:11.938Z,999.79
2018-01-15T06:27:11.958Z,999.71
2018-01-15T06:28:11.982Z,999.71
2018-01-15T06:29:12.003Z,999.69
2018-01-15T06:30:12.028Z,999.71
2018-01-15T06:31:12.051Z,999.69
2018-01-15T06:32:12.075Z,999.72
2018-01-15T06:33:12.098Z,999.73
2018-01-15T06:34:12.122Z,999.78
2018-01-15T06:35:12.144Z,999.75
2018-01-15T06:36:12.169Z,999.79
2018-01-15T06:37:12.192Z,999.73
2018-01-15T06:38:12.215Z,999.76
2018-01-15T06:39:12.239Z,999.79
2018-01-15T06:40:12.262Z,999.82
2018-01-15T06:41:12.285Z,999.79
2018-01-15T06:42:12.309Z,999.78
2018-01-15T06:43:12.333Z,999.82
2018-01-15T06:44:12.356Z,999.76
2018-01-15T06:45:12.379Z,999.77
2018-01-15T06:46:12.402Z,999.75
2018-01-15T06:47:12.427Z,999.74
2018-01-15T06:48:12.449Z,999.74
2018-01-15T06:49:12.473Z,999.73
2018-01-15T06:50:12.496Z,999.74
2018-01-15T06:51:12.521Z,999.73
2018-01-15T06:52:12.545Z,999.71
2018-01-15T06:53:12.566Z,999.70
2018-01-15T06:54:12.589Z,999.74
2018-01-15T06:55:12.614Z,999.73
2018-01-15T06:56:12.638Z,999.72
2018-01-15T06:57:12.661Z,999.72
2018-01-15T06:58:12.685Z,999.74
2018-01-15T06:59:12.708Z,999.77
2018-01-15T07:00:12.732Z,999.72
2018-01-15T07:01:12.755Z,999.66
2018-01-15T07:02:12.780Z,999.67
2018-01-15T07:03:12.803Z,999.66
2018-01-15T07:04:12.827Z,999.65
2018-01-15T07:05:12.850Z,999.56
2018-01-15T07:06:12.874Z,999.59
2018-01-15T07:07:12.898Z,999.60
2018-01-15T07:08:12.921Z,999.60
2018-01-15T07:09:12.944Z,999.59
2018-01-15T07:10:12.968Z,999.61
2018-01-15T07:11:12.992Z,999.62
2018-01-15T07:12:13.017Z,999.62
2018-01-15T07:13:13.039Z,999.61
2018-01-15T07:14:13.064Z,999.61
2018-01-15T07:15:13.086Z,999.60
2018-01-15T07:16:13.113Z,999.55
2018-01-15T07:17:13.184Z,999.60
2018-01-15T07:18:13.158Z,999.57
2018-01-15T07:19:13.196Z,999.60
2018-01-15T07:20:13.206Z,999.59
2018-01-15T07:21:13.233Z,999.55
2018-01-15T07:22:13.255Z,999.59
2018-01-15T07:23:13.279Z,999.56
2018-01-15T07:24:13.302Z,999.54
2018-01-15T07:25:13.325Z,999.54
2018-01-15T07:26:13.352Z,999.53
2018-01-15T07:27:13.373Z,999.53
2018-01-15T07:28:13.399Z,999.61
2018-01-15T07:29:13.422Z,999.57
2018-01-15T07:30:13.445Z,999.63
2018-01-15T07:31:13.469Z,999.61
2018-01-15T07:32:13.496Z,999.56
2018-01-15T07:33:13.518Z,999.57
2018-01-15T07:34:13.542Z,999.59
2018-01-15T07:35:13.566Z,999.61
2018-01-15T07:36:13.591Z,999.61
2018-01-15T07:37:13.613Z,999.58
2018-01-15T07:38:13.638Z,999.59
2018-01-15T07:39:13.665Z,999.62
2018-01-15T07:40:13.687Z,999.61
2018-01-15T07:41:13.710Z,999.66
2018-01-15T07:42:13.734Z,999.60
2018-01-15T07:43:13.759Z,999.62
2018-01-15T07:44:13.783Z,999.62
2018-01-15T07:45:13.805Z,999.55
2018-01-15T07:46:13.830Z,999.61
2018-01-15T07:47:13.854Z,999.55
2018-01-15T07:48:13.879Z,999.55
2018-01-15T07:49:13.910Z,999.53
2018-01-15T07:50:13.927Z,999.55
2018-01-15T07:51:13.952Z,999.52
2018-01-15T07:52:13.977Z,999.51
2018-01-15T07:53:13.999Z,999.49
2018-01-15T07:54:14.024Z,999.50
2018-01-15T07:55:14.049Z,999.51
2018-01-15T07:56:14.077Z,999.48
2018-01-15T07:57:14.147Z,999.45
2018-01-15T07:58:14.125Z,999.39
2018-01-15T07:59:14.145Z,999.43
2018-01-15T08:00:14.172Z,999.47
2018-01-15T08:01:14.192Z,999.42
2018-01-15T08:02:14.216Z,999.40
2018-01-15T08:03:14.241Z,999.37
2018-01-15T08:04:14.327Z,999.40
2018-01-15T08:05:14.331Z,999.41
2018-01-15T08:06:14.344Z,999.39
2018-01-15T08:07:14.338Z,999.39
2018-01-15T08:08:14.363Z,999.37
2018-01-15T08:09:14.386Z,999.32
2018-01-15T08:10:14.411Z,999.37
2018-01-15T08:11:14.435Z,999.30
2018-01-15T08:12:14.492Z,999.25
2018-01-15T08:13:14.484Z,999.31
2018-01-15T08:14:14.521Z,999.25
2018-01-15T08:15:14.533Z,999.25
2018-01-15T08:16:14.558Z,999.23
2018-01-15T08:17:14.581Z,999.23
2018-01-15T08:18:14.606Z,999.22
2018-01-15T08:19:14.630Z,999.24
2018-01-15T08:20:14.655Z,999.25
2018-01-15T08:21:14.678Z,999.17
2018-01-15T08:22:14.702Z,999.24
2018-01-15T08:23:14.728Z,999.24
2018-01-15T08:24:14.752Z,999.20
2018-01-15T08:25:14.778Z,999.17
2018-01-15T08:26:14.801Z,999.16
2018-01-15T08:27:14.825Z,999.19
2018-01-15T08:28:14.850Z,999.15
2018-01-15T08:29:14.913Z,999.14
2018-01-15T08:30:14.899Z,999.20
2018-01-15T08:31:14.923Z,999.15
2018-01-15T08:32:14.949Z,999.12
2018-01-15T08:33:14.984Z,999.12
2018-01-15T08:34:14.996Z,999.14
2018-01-15T08:35:15.021Z,999.18
2018-01-15T08:36:15.050Z,999.12
2018-01-15T08:37:15.071Z,999.13
2018-01-15T08:38:15.095Z,999.01
2018-01-15T08:39:15.120Z,999.03
2018-01-15T08:40:15.251Z,998.94
2018-01-15T08:41:15.170Z,998.93
2018-01-15T08:42:15.193Z,998.94
2018-01-15T08:43:15.218Z,998.87
2018-01-15T08:44:15.244Z,998.87
2018-01-15T08:45:15.268Z,998.87
2018-01-15T08:46:15.292Z,998.86
2018-01-15T08:47:15.322Z,998.86
2018-01-15T08:48:15.342Z,998.86
2018-01-15T08:49:15.365Z,998.84
2018-01-15T08:50:15.390Z,998.78
2018-01-15T08:51:15.415Z,998.81
2018-01-15T08:52:15.440Z,998.80
2018-01-15T08:53:15.464Z,998.75
2018-01-15T08:54:15.488Z,998.79
2018-01-15T08:55:15.514Z,998.73
2018-01-15T08:56:15.538Z,998.79
2018-01-15T08:57:15.562Z,998.71
2018-01-15T08:58:15.589Z,998.78
2018-01-15T08:59:15.614Z,998.76
2018-01-15T09:00:15.638Z,998.73
2018-01-15T09:01:15.662Z,998.70
2018-01-15T09:02:15.687Z,998.69
2018-01-15T09:03:15.714Z,998.75
2018-01-15T09:04:15.737Z,998.69
2018-01-15T09:05:15.761Z,998.63
2018-01-15T09:06:15.793Z,998.68
2018-01-15T09:07:15.811Z,998.61
2018-01-15T09:08:15.837Z,998.67
2018-01-15T09:09:15.861Z,998.67
2018-01-15T09:10:16.037Z,998.59
2018-01-15T09:11:15.912Z,998.53
2018-01-15T09:12:15.936Z,998.59
2018-01-15T09:13:15.964Z,998.59
2018-01-15T09:14:15.986Z,998.56
2018-01-15T09:15:16.012Z,998.58
2018-01-15T09:16:16.059Z,998.54
2018-01-15T09:17:16.061Z,998.53
2018-01-15T09:18:16.086Z,998.50
2018-01-15T09:19:16.110Z,998.50
2018-01-15T09:20:16.138Z,998.52
2018-01-15T09:21:16.159Z,998.52
2018-01-15T09:22:16.185Z,998.54
2018-01-15T09:23:16.211Z,998.60
2018-01-15T09:24:16.238Z,998.58
2018-01-15T09:25:16.261Z,998.58
2018-01-15T09:26:16.286Z,998.57
2018-01-15T09:27:16.310Z,998.51
2018-01-15T09:28:16.337Z,998.50
2018-01-15T09:29:16.361Z,998.57
2018-01-15T09:30:16.389Z,998.49
2018-01-15T09:31:16.412Z,998.50
2018-01-15T09:32:16.438Z,998.53
2018-01-15T09:33:16.462Z,998.50
2018-01-15T09:34:16.487Z,998.47
2018-01-15T09:35:16.511Z,998.49
2018-01-15T09:36:16.538Z,998.43
2018-01-15T09:37:16.565Z,998.45
2018-01-15T09:38:16.589Z,998.44
2018-01-15T09:39:16.616Z,998.43
2018-01-15T09:40:16.640Z,998.46
2018-01-15T09:41:16.664Z,998.41
2018-01-15T09:42:16.692Z,998.40
2018-01-15T09:43:16.727Z,998.33
2018-01-15T09:44:16.742Z,998.36
2018-01-15T09:45:16.799Z,998.37
2018-01-15T09:46:16.796Z,998.38
2018-01-15T09:47:16.818Z,998.35
2018-01-15T09:48:16.843Z,998.34
2018-01-15T09:49:16.910Z,998.38
2018-01-15T09:50:16.894Z,998.36
2018-01-15T09:51:16.921Z,998.38
2018-01-15T09:52:16.946Z,998.36
2018-01-15T09:53:16.973Z,998.30
2018-01-15T09:54:16.998Z,998.39
2018-01-15T09:55:17.024Z,998.30
2018-01-15T09:56:17.050Z,998.29
2018-01-15T09:57:17.075Z,998.29
2018-01-15T09:58:17.100Z,998.26
2018-01-15T09:59:17.126Z,998.22
2018-01-15T10:00:17.152Z,998.21
2018-01-15T10:01:17.178Z,998.24
2018-01-15T10:02:17.204Z,998.25
2018-01-15T10:03:17.230Z,998.20
2018-01-15T10:04:17.255Z,998.23
2018-01-15T10:05:17.283Z,998.14
2018-01-15T10:06:17.309Z,998.22
2018-01-15T10:07:17.335Z,998.23
2018-01-15T10:08:17.361Z,998.16
2018-01-15T10:09:17.386Z,998.15
2018-01-15T10:10:17.413Z,998.11
2018-01-15T10:11:17.439Z,998.10
2018-01-15T10:12:17.466Z,998.08
2018-01-15T10:13:17.491Z,998.06
2018-01-15T10:14:17.518Z,998.08
2018-01-15T10:15:17.544Z,998.08
2018-01-15T10:16:17.599Z,998.07
2018-01-15T10:17:17.596Z,998.00
2018-01-15T10:18:17.623Z,997.96
2018-01-15T10:19:17.651Z,997.92
2018-01-15T10:20:17.678Z,997.90
2018-01-15T10:21:17.702Z,997.86
2018-01-15T10:22:17.731Z,997.78
2018-01-15T10:23:17.758Z,997.80
2018-01-15T10:24:17.783Z,997.78
2018-01-15T10:25:17.845Z,997.71
2018-01-15T10:26:17.839Z,997.72
2018-01-15T10:27:17.869Z,997.65
2018-01-15T10:28:17.893Z,997.68
2018-01-15T10:29:17.920Z,997.65
2018-01-15T10:30:17.947Z,997.61
2018-01-15T10:31:17.973Z,997.58
2018-01-15T10:32:18.001Z,997.58
2018-01-15T10:33:18.057Z,997.59
2018-01-15T10:34:18.054Z,997.53
2018-01-15T10:35:18.121Z,997.48
2018-01-15T10:36:18.109Z,997.47
2018-01-15T10:37:18.136Z,997.49
2018-01-15T10:38:18.162Z,997.42
2018-01-15T10:39:18.190Z,997.36
2018-01-15T10:40:18.217Z,997.37
2018-01-15T10:41:18.244Z,997.30
2018-01-15T10:42:18.272Z,997.31
2018-01-15T10:43:18.298Z,997.21
2018-01-15T10:44:18.326Z,997.23
2018-01-15T10:45:18.353Z,997.20
2018-01-15T10:46:18.381Z,997.21
2018-01-15T10:47:18.408Z,997.15
2018-01-15T10:48:18.434Z,997.13
2018-01-15T10:49:18.461Z,997.08
2018-01-15T10:50:18.490Z,997.07
2018-01-15T10:51:18.518Z,997.07
2018-01-15T10:52:18.544Z,997.02
2018-01-15T10:53:18.570Z,996.99
2018-01-15T10:54:18.599Z,996.97
2018-01-15T10:55:18.627Z,996.98
2018-01-15T10:56:18.654Z,996.93
2018-01-15T10:57:18.682Z,996.90
2018-01-15T10:58:18.709Z,996.92
2018-01-15T10:59:18.737Z,996.94
2018-01-15T11:00:18.764Z,996.91
2018-01-15T11:01:18.792Z,996.78
2018-01-15T11:02:18.820Z,996.79
2018-01-15T11:03:18.847Z,996.73
2018-01-15T11:04:18.875Z,996.73
2018-01-15T11:05:18.902Z,996.68
2018-01-15T11:06:18.931Z,996.69
2018-01-15T11:07:18.958Z,996.58
2018-01-15T11:08:18.985Z,996.65
2018-01-15T11:09:19.015Z,996.61
2018-01-15T11:10:19.042Z,996.61
2018-01-15T11:11:19.071Z,996.56
2018-01-15T11:12:19.099Z,996.54
2018-01-15T11:13:19.124Z,996.59
2018-01-15T11:14:19.150Z,996.53
2018-01-15T11:15:19.180Z,996.50
2018-01-15T11:16:19.207Z,996.46
2018-01-15T11:17:19.235Z,996.41
2018-01-15T11:18:19.264Z,996.44
2018-01-15T11:19:19.293Z,996.38
2018-01-15T11:20:19.319Z,996.39
2018-01-15T11:21:19.347Z,996.34
2018-01-15T11:22:19.375Z,996.33
2018-01-15T11:23:19.403Z,996.19
2018-01-15T11:24:19.431Z,996.20
2018-01-15T11:25:19.459Z,996.23
2018-01-15T11:26:19.490Z,996.20
2018-01-15T11:27:19.517Z,996.15
2018-01-15T11:28:19.544Z,996.16
2018-01-15T11:29:19.571Z,996.12
2018-01-15T11:30:19.600Z,996.15
2018-01-15T11:31:19.629Z,996.10
2018-01-15T11:32:19.657Z,996.12
2018-01-15T11:33:19.684Z,995.97
2018-01-15T11:34:19.713Z,996.01
2018-01-15T11:35:19.742Z,995.97
2018-01-15T11:36:19.770Z,995.96
2018-01-15T11:37:19.798Z,995.92
2018-01-15T11:38:19.827Z,995.91
2018-01-15T11:39:19.856Z,995.91
2018-01-15T11:40:19.885Z,995.91
2018-01-15T11:41:19.912Z,995.87
2018-01-15T11:42:19.941Z,995.81
2018-01-15T11:43:19.971Z,995.80
2018-01-15T11:44:19.999Z,995.81
2018-01-15T11:45:20.026Z,995.80
2018-01-15T11:46:20.056Z,995.82
2018-01-15T11:47:20.084Z,995.79
2018-01-15T11:48:20.113Z,995.80
2018-01-15T11:49:20.141Z,995.72
2018-01-15T11:50:20.170Z,995.73
2018-01-15T11:51:20.199Z,995.72
2018-01-15T11:52:20.229Z,995.71
2018-01-15T11:53:20.257Z,995.73
2018-01-15T11:54:20.285Z,995.76
2018-01-15T11:55:20.315Z,995.81
2018-01-15T11:56:20.344Z,996.00
2018-01-15T11:57:20.373Z,996.05
2018-01-15T11:58:20.400Z,995.77
2018-01-15T11:59:20.437Z,995.97
2018-01-15T12:00:20.462Z,996.11
2018-01-15T12:01:20.490Z,996.22
2018-01-15T12:02:20.521Z,996.14
2018-01-15T12:03:20.551Z,996.30
2018-01-15T12:04:20.581Z,996.17
2018-01-15T12:05:20.612Z,996.00
2018-01-15T12:06:20.643Z,996.12
2018-01-15T12:07:20.674Z,996.01
2018-01-15T12:08:20.707Z,995.80
2018-01-15T12:09:20.740Z,995.63
2018-01-15T12:10:20.773Z,995.49
2018-01-15T12:11:20.806Z,995.40
2018-01-15T12:12:20.840Z,995.41
2018-01-15T12:13:20.872Z,995.33
2018-01-15T12:14:20.907Z,995.28
2018-01-15T12:15:20.943Z,995.15
2018-01-15T12:16:20.976Z,995.17
2018-01-15T12:17:21.009Z,995.05